sensor_id;sensor_type;location;lat;lon;timestamp;P1;durP1;ratioP1;P2;durP2;ratioP2
68076;SDS011;54866;53.458;14.540;2023-05-10T00:00:11;6.10;;;4.30;;
68076;SDS011;54866;53.458;14.540;2023-05-10T00:02:41;7.20;;;4.00;;
68076;SDS011;54866;53.458;14.540;2023-05-10T00:05:11;5.70;;;4.30;;
68076;SDS011;54866;53.458;14.540;2023-05-10T00:07:40;5.80;;;4.60;;
68076;SDS011;54866;53.458;14.540;2023-05-10T00:10:11;7.40;;;4.70;;
68076;SDS011;54866;53.458;14.540;2023-05-10T00:12:41;5.80;;;4.10;;
68076;SDS011;54866;53.458;14.540;2023-05-10T00:15:10;5.70;;;4.20;;
68076;SDS011;54866;53.458;14.540;2023-05-10T00:17:40;7.70;;;4.30;;
68076;SDS011;54866;53.458;14.540;2023-05-10T00:20:11;5.70;;;4.20;;
68076;SDS011;54866;53.458;14.540;2023-05-10T00:22:40;6.20;;;4.40;;
68076;SDS011;54866;53.458;14.540;2023-05-10T00:25:10;8.00;;;3.90;;
68076;SDS011;54866;53.458;14.540;2023-05-10T00:27:39;6.80;;;4.30;;
68076;SDS011;54866;53.458;14.540;2023-05-10T00:30:09;4.50;;;4.00;;
68076;SDS011;54866;53.458;14.540;2023-05-10T00:32:39;5.70;;;4.50;;
68076;SDS011;54866;53.458;14.540;2023-05-10T00:35:09;9.40;;;4.70;;
68076;SDS011;54866;53.458;14.540;2023-05-10T00:37:39;6.10;;;4.80;;
68076;SDS011;54866;53.458;14.540;2023-05-10T00:40:11;6.30;;;4.20;;
68076;SDS011;54866;53.458;14.540;2023-05-10T00:42:41;3.90;;;3.50;;
68076;SDS011;54866;53.458;14.540;2023-05-10T00:45:11;6.70;;;5.30;;
68076;SDS011;54866;53.458;14.540;2023-05-10T00:47:40;5.30;;;4.50;;
68076;SDS011;54866;53.458;14.540;2023-05-10T00:50:10;8.80;;;4.90;;
68076;SDS011;54866;53.458;14.540;2023-05-10T00:52:40;6.20;;;5.40;;
68076;SDS011;54866;53.458;14.540;2023-05-10T00:55:11;7.40;;;5.10;;
68076;SDS011;54866;53.458;14.540;2023-05-10T00:57:41;10.20;;;5.80;;
68076;SDS011;54866;53.458;14.540;2023-05-10T01:00:12;7.70;;;4.70;;
68076;SDS011;54866;53.458;14.540;2023-05-10T01:05:12;7.10;;;4.60;;
68076;SDS011;54866;53.458;14.540;2023-05-10T01:07:42;6.40;;;4.40;;
68076;SDS011;54866;53.458;14.540;2023-05-10T01:10:12;6.70;;;4.40;;
68076;SDS011;54866;53.458;14.540;2023-05-10T01:12:42;6.60;;;4.90;;
68076;SDS011;54866;53.458;14.540;2023-05-10T01:15:14;5.70;;;4.40;;
68076;SDS011;54866;53.458;14.540;2023-05-10T01:17:45;5.90;;;4.70;;
68076;SDS011;54866;53.458;14.540;2023-05-10T01:20:16;5.70;;;4.10;;
68076;SDS011;54866;53.458;14.540;2023-05-10T01:26:04;5.70;;;4.10;;
68076;SDS011;54866;53.458;14.540;2023-05-10T01:34:58;11.60;;;5.00;;
68076;SDS011;54866;53.458;14.540;2023-05-10T01:37:36;4.90;;;4.10;;
68076;SDS011;54866;53.458;14.540;2023-05-10T01:40:13;7.30;;;5.10;;
68076;SDS011;54866;53.458;14.540;2023-05-10T01:42:51;7.80;;;5.30;;
68076;SDS011;54866;53.458;14.540;2023-05-10T01:45:28;8.50;;;4.90;;
68076;SDS011;54866;53.458;14.540;2023-05-10T01:48:05;8.60;;;5.50;;
68076;SDS011;54866;53.458;14.540;2023-05-10T01:50:37;6.60;;;5.20;;
68076;SDS011;54866;53.458;14.540;2023-05-10T01:53:10;7.40;;;4.30;;
68076;SDS011;54866;53.458;14.540;2023-05-10T01:55:46;6.30;;;4.40;;
68076;SDS011;54866;53.458;14.540;2023-05-10T01:58:25;5.90;;;5.30;;
68076;SDS011;54866;53.458;14.540;2023-05-10T02:01:00;8.90;;;5.50;;
68076;SDS011;54866;53.458;14.540;2023-05-10T02:03:31;7.00;;;5.70;;
68076;SDS011;54866;53.458;14.540;2023-05-10T02:06:03;6.90;;;5.10;;
68076;SDS011;54866;53.458;14.540;2023-05-10T02:08:35;7.70;;;4.60;;
68076;SDS011;54866;53.458;14.540;2023-05-10T02:11:07;7.60;;;4.80;;
68076;SDS011;54866;53.458;14.540;2023-05-10T02:13:40;6.50;;;5.00;;
68076;SDS011;54866;53.458;14.540;2023-05-10T02:16:11;9.70;;;5.10;;
68076;SDS011;54866;53.458;14.540;2023-05-10T02:18:42;7.40;;;5.60;;
68076;SDS011;54866;53.458;14.540;2023-05-10T02:21:13;6.00;;;4.90;;
68076;SDS011;54866;53.458;14.540;2023-05-10T02:23:44;7.50;;;5.20;;
68076;SDS011;54866;53.458;14.540;2023-05-10T02:26:16;5.90;;;4.70;;
68076;SDS011;54866;53.458;14.540;2023-05-10T02:28:49;6.20;;;4.80;;
68076;SDS011;54866;53.458;14.540;2023-05-10T02:31:19;6.10;;;4.80;;
68076;SDS011;54866;53.458;14.540;2023-05-10T02:33:50;7.20;;;5.90;;
68076;SDS011;54866;53.458;14.540;2023-05-10T02:36:21;6.90;;;4.70;;
68076;SDS011;54866;53.458;14.540;2023-05-10T02:38:54;6.30;;;5.00;;
68076;SDS011;54866;53.458;14.540;2023-05-10T02:41:25;5.40;;;4.40;;
68076;SDS011;54866;53.458;14.540;2023-05-10T02:43:57;5.60;;;5.10;;
68076;SDS011;54866;53.458;14.540;2023-05-10T02:46:29;6.10;;;5.50;;
68076;SDS011;54866;53.458;14.540;2023-05-10T02:48:58;5.80;;;4.90;;
68076;SDS011;54866;53.458;14.540;2023-05-10T02:51:30;6.30;;;4.80;;
68076;SDS011;54866;53.458;14.540;2023-05-10T02:54:05;7.70;;;5.10;;
68076;SDS011;54866;53.458;14.540;2023-05-10T02:56:40;7.00;;;4.60;;
68076;SDS011;54866;53.458;14.540;2023-05-10T02:59:14;6.50;;;5.60;;
68076;SDS011;54866;53.458;14.540;2023-05-10T03:01:43;7.20;;;4.60;;
68076;SDS011;54866;53.458;14.540;2023-05-10T03:04:13;7.10;;;4.80;;
68076;SDS011;54866;53.458;14.540;2023-05-10T03:06:42;6.70;;;5.30;;
68076;SDS011;54866;53.458;14.540;2023-05-10T03:09:12;7.40;;;5.50;;
68076;SDS011;54866;53.458;14.540;2023-05-10T03:11:46;9.00;;;5.40;;
68076;SDS011;54866;53.458;14.540;2023-05-10T03:14:25;6.00;;;5.00;;
68076;SDS011;54866;53.458;14.540;2023-05-10T03:17:06;9.00;;;5.30;;
68076;SDS011;54866;53.458;14.540;2023-05-10T03:19:40;6.30;;;4.50;;
68076;SDS011;54866;53.458;14.540;2023-05-10T03:22:20;6.80;;;4.80;;
68076;SDS011;54866;53.458;14.540;2023-05-10T03:24:53;9.40;;;4.80;;
68076;SDS011;54866;53.458;14.540;2023-05-10T03:27:25;8.20;;;5.20;;
68076;SDS011;54866;53.458;14.540;2023-05-10T03:29:55;6.50;;;4.70;;
68076;SDS011;54866;53.458;14.540;2023-05-10T03:32:26;8.50;;;5.80;;
68076;SDS011;54866;53.458;14.540;2023-05-10T03:35:00;5.90;;;4.40;;
68076;SDS011;54866;53.458;14.540;2023-05-10T03:37:33;7.60;;;4.60;;
68076;SDS011;54866;53.458;14.540;2023-05-10T03:40:04;8.80;;;6.10;;
68076;SDS011;54866;53.458;14.540;2023-05-10T03:42:35;9.00;;;5.40;;
68076;SDS011;54866;53.458;14.540;2023-05-10T03:45:05;9.30;;;6.00;;
68076;SDS011;54866;53.458;14.540;2023-05-10T03:47:38;6.30;;;4.60;;
68076;SDS011;54866;53.458;14.540;2023-05-10T03:50:08;7.30;;;4.80;;
68076;SDS011;54866;53.458;14.540;2023-05-10T03:52:38;7.90;;;5.40;;
68076;SDS011;54866;53.458;14.540;2023-05-10T03:55:08;7.00;;;5.80;;
68076;SDS011;54866;53.458;14.540;2023-05-10T03:57:38;9.30;;;5.40;;
68076;SDS011;54866;53.458;14.540;2023-05-10T04:00:09;6.20;;;4.60;;
68076;SDS011;54866;53.458;14.540;2023-05-10T04:02:40;6.70;;;4.90;;
68076;SDS011;54866;53.458;14.540;2023-05-10T04:05:10;6.30;;;5.50;;
68076;SDS011;54866;53.458;14.540;2023-05-10T04:07:40;6.50;;;5.00;;
68076;SDS011;54866;53.458;14.540;2023-05-10T04:10:10;6.20;;;4.90;;
68076;SDS011;54866;53.458;14.540;2023-05-10T04:12:40;6.90;;;5.20;;
68076;SDS011;54866;53.458;14.540;2023-05-10T04:15:10;8.60;;;6.50;;
68076;SDS011;54866;53.458;14.540;2023-05-10T04:17:39;6.00;;;4.80;;
68076;SDS011;54866;53.458;14.540;2023-05-10T04:20:10;9.20;;;6.10;;
68076;SDS011;54866;53.458;14.540;2023-05-10T04:22:40;8.10;;;5.90;;
68076;SDS011;54866;53.458;14.540;2023-05-10T04:25:10;7.10;;;6.40;;
68076;SDS011;54866;53.458;14.540;2023-05-10T04:27:40;9.00;;;5.90;;
68076;SDS011;54866;53.458;14.540;2023-05-10T04:30:10;7.00;;;5.70;;
68076;SDS011;54866;53.458;14.540;2023-05-10T04:32:40;6.80;;;5.90;;
68076;SDS011;54866;53.458;14.540;2023-05-10T04:35:10;6.20;;;4.80;;
68076;SDS011;54866;53.458;14.540;2023-05-10T04:37:41;8.50;;;6.40;;
68076;SDS011;54866;53.458;14.540;2023-05-10T04:40:11;5.40;;;3.70;;
68076;SDS011;54866;53.458;14.540;2023-05-10T04:42:41;9.30;;;5.80;;
68076;SDS011;54866;53.458;14.540;2023-05-10T04:45:11;5.80;;;4.80;;
68076;SDS011;54866;53.458;14.540;2023-05-10T04:47:42;5.90;;;4.90;;
68076;SDS011;54866;53.458;14.540;2023-05-10T04:50:11;9.10;;;6.10;;
68076;SDS011;54866;53.458;14.540;2023-05-10T04:52:41;7.20;;;5.20;;
68076;SDS011;54866;53.458;14.540;2023-05-10T04:55:10;6.80;;;5.90;;
68076;SDS011;54866;53.458;14.540;2023-05-10T04:57:40;8.80;;;5.70;;
68076;SDS011;54866;53.458;14.540;2023-05-10T05:00:11;7.20;;;6.00;;
68076;SDS011;54866;53.458;14.540;2023-05-10T05:02:43;8.20;;;6.20;;
68076;SDS011;54866;53.458;14.540;2023-05-10T05:05:13;8.30;;;6.00;;
68076;SDS011;54866;53.458;14.540;2023-05-10T05:07:42;7.40;;;6.00;;
68076;SDS011;54866;53.458;14.540;2023-05-10T05:10:12;7.20;;;5.70;;
68076;SDS011;54866;53.458;14.540;2023-05-10T05:12:41;6.50;;;5.70;;
68076;SDS011;54866;53.458;14.540;2023-05-10T05:15:11;7.90;;;6.30;;
68076;SDS011;54866;53.458;14.540;2023-05-10T05:17:43;8.40;;;6.40;;
68076;SDS011;54866;53.458;14.540;2023-05-10T05:20:12;8.40;;;6.00;;
68076;SDS011;54866;53.458;14.540;2023-05-10T05:22:42;7.90;;;5.30;;
68076;SDS011;54866;53.458;14.540;2023-05-10T05:25:12;7.30;;;6.30;;
68076;SDS011;54866;53.458;14.540;2023-05-10T05:27:41;7.30;;;5.70;;
68076;SDS011;54866;53.458;14.540;2023-05-10T05:30:11;6.90;;;6.10;;
68076;SDS011;54866;53.458;14.540;2023-05-10T05:32:41;6.30;;;4.80;;
68076;SDS011;54866;53.458;14.540;2023-05-10T05:35:10;6.70;;;6.00;;
68076;SDS011;54866;53.458;14.540;2023-05-10T05:37:40;5.80;;;5.20;;
68076;SDS011;54866;53.458;14.540;2023-05-10T05:40:12;7.20;;;6.20;;
68076;SDS011;54866;53.458;14.540;2023-05-10T05:42:42;8.20;;;5.90;;
68076;SDS011;54866;53.458;14.540;2023-05-10T05:45:11;7.10;;;5.70;;
68076;SDS011;54866;53.458;14.540;2023-05-10T05:47:41;6.30;;;5.70;;
68076;SDS011;54866;53.458;14.540;2023-05-10T05:50:11;6.80;;;5.60;;
68076;SDS011;54866;53.458;14.540;2023-05-10T05:52:41;7.40;;;5.70;;
68076;SDS011;54866;53.458;14.540;2023-05-10T05:55:10;6.20;;;5.50;;
68076;SDS011;54866;53.458;14.540;2023-05-10T05:57:40;6.90;;;5.30;;
68076;SDS011;54866;53.458;14.540;2023-05-10T06:00:12;6.80;;;5.50;;
68076;SDS011;54866;53.458;14.540;2023-05-10T06:02:43;6.30;;;5.20;;
68076;SDS011;54866;53.458;14.540;2023-05-10T06:05:13;6.20;;;5.30;;
68076;SDS011;54866;53.458;14.540;2023-05-10T06:07:42;7.80;;;5.50;;
68076;SDS011;54866;53.458;14.540;2023-05-10T06:10:12;7.50;;;5.50;;
68076;SDS011;54866;53.458;14.540;2023-05-10T06:12:42;6.70;;;5.30;;
68076;SDS011;54866;53.458;14.540;2023-05-10T06:15:11;6.80;;;5.20;;
68076;SDS011;54866;53.458;14.540;2023-05-10T06:17:41;7.20;;;5.60;;
68076;SDS011;54866;53.458;14.540;2023-05-10T06:20:12;6.50;;;4.90;;
68076;SDS011;54866;53.458;14.540;2023-05-10T06:22:42;6.10;;;5.30;;
68076;SDS011;54866;53.458;14.540;2023-05-10T06:25:12;6.10;;;5.50;;
68076;SDS011;54866;53.458;14.540;2023-05-10T06:27:44;6.60;;;4.60;;
68076;SDS011;54866;53.458;14.540;2023-05-10T06:30:14;6.60;;;4.80;;
68076;SDS011;54866;53.458;14.540;2023-05-10T06:32:44;7.70;;;5.40;;
68076;SDS011;54866;53.458;14.540;2023-05-10T06:35:13;6.00;;;5.20;;
68076;SDS011;54866;53.458;14.540;2023-05-10T06:37:43;6.60;;;5.40;;
68076;SDS011;54866;53.458;14.540;2023-05-10T06:40:13;6.20;;;4.90;;
68076;SDS011;54866;53.458;14.540;2023-05-10T06:42:43;5.90;;;5.00;;
68076;SDS011;54866;53.458;14.540;2023-05-10T06:45:13;6.10;;;5.40;;
68076;SDS011;54866;53.458;14.540;2023-05-10T06:47:43;6.30;;;5.70;;
68076;SDS011;54866;53.458;14.540;2023-05-10T06:50:12;6.30;;;5.60;;
68076;SDS011;54866;53.458;14.540;2023-05-10T06:52:42;8.70;;;5.20;;
68076;SDS011;54866;53.458;14.540;2023-05-10T06:55:11;6.70;;;4.90;;
68076;SDS011;54866;53.458;14.540;2023-05-10T06:57:41;6.30;;;5.20;;
68076;SDS011;54866;53.458;14.540;2023-05-10T07:00:11;6.00;;;4.40;;
68076;SDS011;54866;53.458;14.540;2023-05-10T07:02:41;6.00;;;4.60;;
68076;SDS011;54866;53.458;14.540;2023-05-10T07:05:11;6.20;;;4.90;;
68076;SDS011;54866;53.458;14.540;2023-05-10T07:07:41;7.60;;;4.60;;
68076;SDS011;54866;53.458;14.540;2023-05-10T07:10:11;7.00;;;4.80;;
68076;SDS011;54866;53.458;14.540;2023-05-10T07:12:40;6.40;;;4.70;;
68076;SDS011;54866;53.458;14.540;2023-05-10T07:15:10;6.80;;;4.70;;
68076;SDS011;54866;53.458;14.540;2023-05-10T07:17:40;6.70;;;4.70;;
68076;SDS011;54866;53.458;14.540;2023-05-10T07:20:10;8.30;;;5.10;;
68076;SDS011;54866;53.458;14.540;2023-05-10T07:22:40;6.80;;;4.70;;
68076;SDS011;54866;53.458;14.540;2023-05-10T07:25:10;7.40;;;3.80;;
68076;SDS011;54866;53.458;14.540;2023-05-10T07:27:40;7.20;;;4.30;;
68076;SDS011;54866;53.458;14.540;2023-05-10T07:30:11;7.00;;;4.20;;
68076;SDS011;54866;53.458;14.540;2023-05-10T07:32:41;5.50;;;4.50;;
68076;SDS011;54866;53.458;14.540;2023-05-10T07:35:11;7.50;;;4.60;;
68076;SDS011;54866;53.458;14.540;2023-05-10T07:37:41;4.90;;;4.00;;
68076;SDS011;54866;53.458;14.540;2023-05-10T07:40:10;6.50;;;3.60;;
68076;SDS011;54866;53.458;14.540;2023-05-10T07:42:40;4.80;;;3.60;;
68076;SDS011;54866;53.458;14.540;2023-05-10T07:45:10;6.60;;;5.20;;
68076;SDS011;54866;53.458;14.540;2023-05-10T07:47:40;6.70;;;4.70;;
68076;SDS011;54866;53.458;14.540;2023-05-10T07:50:09;8.50;;;4.20;;
68076;SDS011;54866;53.458;14.540;2023-05-10T07:52:39;6.80;;;4.30;;
68076;SDS011;54866;53.458;14.540;2023-05-10T07:55:10;6.90;;;4.10;;
68076;SDS011;54866;53.458;14.540;2023-05-10T07:57:39;5.70;;;4.00;;
68076;SDS011;54866;53.458;14.540;2023-05-10T08:00:11;6.90;;;4.10;;
68076;SDS011;54866;53.458;14.540;2023-05-10T08:02:44;8.40;;;4.10;;
68076;SDS011;54866;53.458;14.540;2023-05-10T08:05:14;5.50;;;4.10;;
68076;SDS011;54866;53.458;14.540;2023-05-10T08:07:44;7.60;;;4.40;;
68076;SDS011;54866;53.458;14.540;2023-05-10T08:10:13;7.00;;;4.10;;
68076;SDS011;54866;53.458;14.540;2023-05-10T08:12:43;7.60;;;4.20;;
68076;SDS011;54866;53.458;14.540;2023-05-10T08:15:13;7.00;;;4.60;;
68076;SDS011;54866;53.458;14.540;2023-05-10T08:17:42;6.40;;;4.20;;
68076;SDS011;54866;53.458;14.540;2023-05-10T08:20:12;5.60;;;3.90;;
68076;SDS011;54866;53.458;14.540;2023-05-10T08:22:43;5.90;;;3.40;;
68076;SDS011;54866;53.458;14.540;2023-05-10T08:25:13;6.20;;;3.60;;
68076;SDS011;54866;53.458;14.540;2023-05-10T08:27:42;4.60;;;3.90;;
68076;SDS011;54866;53.458;14.540;2023-05-10T08:30:12;6.90;;;3.50;;
68076;SDS011;54866;53.458;14.540;2023-05-10T08:32:42;6.40;;;3.90;;
68076;SDS011;54866;53.458;14.540;2023-05-10T08:35:12;5.30;;;3.20;;
68076;SDS011;54866;53.458;14.540;2023-05-10T08:37:41;4.30;;;3.90;;
68076;SDS011;54866;53.458;14.540;2023-05-10T08:40:12;5.00;;;3.10;;
68076;SDS011;54866;53.458;14.540;2023-05-10T08:42:43;5.90;;;3.30;;
68076;SDS011;54866;53.458;14.540;2023-05-10T08:45:19;5.40;;;4.30;;
68076;SDS011;54866;53.458;14.540;2023-05-10T08:47:50;7.80;;;4.10;;
68076;SDS011;54866;53.458;14.540;2023-05-10T08:50:21;6.10;;;3.40;;
68076;SDS011;54866;53.458;14.540;2023-05-10T08:52:53;5.80;;;3.20;;
68076;SDS011;54866;53.458;14.540;2023-05-10T08:55:26;5.60;;;3.40;;
68076;SDS011;54866;53.458;14.540;2023-05-10T08:57:56;4.00;;;3.30;;
68076;SDS011;54866;53.458;14.540;2023-05-10T09:00:26;5.90;;;3.60;;
68076;SDS011;54866;53.458;14.540;2023-05-10T09:02:56;5.20;;;3.30;;
68076;SDS011;54866;53.458;14.540;2023-05-10T09:05:26;7.40;;;4.00;;
68076;SDS011;54866;53.458;14.540;2023-05-10T09:07:56;4.80;;;2.70;;
68076;SDS011;54866;53.458;14.540;2023-05-10T09:10:27;6.20;;;3.80;;
68076;SDS011;54866;53.458;14.540;2023-05-10T09:12:57;4.60;;;3.60;;
68076;SDS011;54866;53.458;14.540;2023-05-10T09:15:27;5.80;;;4.10;;
68076;SDS011;54866;53.458;14.540;2023-05-10T09:17:56;5.20;;;3.50;;
68076;SDS011;54866;53.458;14.540;2023-05-10T09:20:28;5.30;;;3.20;;
68076;SDS011;54866;53.458;14.540;2023-05-10T09:22:58;5.10;;;3.50;;
68076;SDS011;54866;53.458;14.540;2023-05-10T09:25:28;6.30;;;3.50;;
68076;SDS011;54866;53.458;14.540;2023-05-10T09:27:59;4.50;;;2.70;;
68076;SDS011;54866;53.458;14.540;2023-05-10T09:30:29;6.10;;;3.90;;
68076;SDS011;54866;53.458;14.540;2023-05-10T09:32:59;8.40;;;4.00;;
68076;SDS011;54866;53.458;14.540;2023-05-10T09:35:29;6.30;;;3.40;;
68076;SDS011;54866;53.458;14.540;2023-05-10T09:38:02;5.70;;;3.40;;
68076;SDS011;54866;53.458;14.540;2023-05-10T09:40:32;4.70;;;3.20;;
68076;SDS011;54866;53.458;14.540;2023-05-10T09:43:03;4.90;;;3.00;;
68076;SDS011;54866;53.458;14.540;2023-05-10T09:45:34;4.40;;;3.00;;
68076;SDS011;54866;53.458;14.540;2023-05-10T09:48:05;4.30;;;3.10;;
68076;SDS011;54866;53.458;14.540;2023-05-10T09:50:34;9.90;;;3.10;;
68076;SDS011;54866;53.458;14.540;2023-05-10T09:53:04;5.20;;;3.40;;
68076;SDS011;54866;53.458;14.540;2023-05-10T09:55:39;5.80;;;3.00;;
68076;SDS011;54866;53.458;14.540;2023-05-10T09:58:11;6.60;;;3.10;;
68076;SDS011;54866;53.458;14.540;2023-05-10T10:00:42;4.10;;;2.90;;
68076;SDS011;54866;53.458;14.540;2023-05-10T10:03:14;4.40;;;2.60;;
68076;SDS011;54866;53.458;14.540;2023-05-10T10:05:45;5.80;;;3.00;;
68076;SDS011;54866;53.458;14.540;2023-05-10T10:08:15;13.20;;;3.80;;
68076;SDS011;54866;53.458;14.540;2023-05-10T10:10:45;6.70;;;3.00;;
68076;SDS011;54866;53.458;14.540;2023-05-10T10:13:15;6.20;;;3.20;;
68076;SDS011;54866;53.458;14.540;2023-05-10T10:15:45;5.60;;;2.60;;
68076;SDS011;54866;53.458;14.540;2023-05-10T10:18:17;5.90;;;2.90;;
68076;SDS011;54866;53.458;14.540;2023-05-10T11:11:06;6.00;;;2.20;;
68076;SDS011;54866;53.458;14.540;2023-05-10T11:13:39;5.20;;;2.90;;
68076;SDS011;54866;53.458;14.540;2023-05-10T11:18:56;4.30;;;2.20;;
68076;SDS011;54866;53.458;14.540;2023-05-10T11:21:28;4.90;;;3.00;;
68076;SDS011;54866;53.458;14.540;2023-05-10T11:23:59;5.30;;;2.90;;
68076;SDS011;54866;53.458;14.540;2023-05-10T11:26:33;3.90;;;2.10;;
68076;SDS011;54866;53.458;14.540;2023-05-10T11:29:03;3.70;;;2.30;;
68076;SDS011;54866;53.458;14.540;2023-05-10T11:31:33;5.60;;;2.60;;
68076;SDS011;54866;53.458;14.540;2023-05-10T11:34:03;5.40;;;2.10;;
68076;SDS011;54866;53.458;14.540;2023-05-10T11:36:34;8.40;;;2.90;;
68076;SDS011;54866;53.458;14.540;2023-05-10T11:39:03;3.20;;;2.50;;
68076;SDS011;54866;53.458;14.540;2023-05-10T11:41:33;3.80;;;2.80;;
68076;SDS011;54866;53.458;14.540;2023-05-10T11:44:03;5.60;;;2.80;;
68076;SDS011;54866;53.458;14.540;2023-05-10T11:46:32;4.80;;;2.70;;
68076;SDS011;54866;53.458;14.540;2023-05-10T11:49:04;5.90;;;2.80;;
68076;SDS011;54866;53.458;14.540;2023-05-10T11:51:34;5.20;;;3.00;;
68076;SDS011;54866;53.458;14.540;2023-05-10T11:54:07;7.30;;;2.80;;
68076;SDS011;54866;53.458;14.540;2023-05-10T11:56:39;4.50;;;2.50;;
68076;SDS011;54866;53.458;14.540;2023-05-10T11:59:08;4.80;;;2.60;;
68076;SDS011;54866;53.458;14.540;2023-05-10T12:01:38;4.50;;;2.40;;
68076;SDS011;54866;53.458;14.540;2023-05-10T12:04:08;3.90;;;2.30;;
68076;SDS011;54866;53.458;14.540;2023-05-10T12:06:39;4.50;;;2.30;;
68076;SDS011;54866;53.458;14.540;2023-05-10T12:09:09;3.80;;;2.30;;
68076;SDS011;54866;53.458;14.540;2023-05-10T12:11:39;6.20;;;2.80;;
68076;SDS011;54866;53.458;14.540;2023-05-10T12:14:09;4.90;;;2.70;;
68076;SDS011;54866;53.458;14.540;2023-05-10T12:16:39;4.90;;;2.30;;
68076;SDS011;54866;53.458;14.540;2023-05-10T12:19:10;3.50;;;2.60;;
68076;SDS011;54866;53.458;14.540;2023-05-10T12:21:40;4.00;;;2.30;;
68076;SDS011;54866;53.458;14.540;2023-05-10T12:24:09;5.30;;;2.30;;
68076;SDS011;54866;53.458;14.540;2023-05-10T12:26:43;6.30;;;2.70;;
68076;SDS011;54866;53.458;14.540;2023-05-10T12:29:15;3.50;;;2.40;;
68076;SDS011;54866;53.458;14.540;2023-05-10T12:31:56;6.30;;;2.80;;
68076;SDS011;54866;53.458;14.540;2023-05-10T12:34:29;4.20;;;2.60;;
68076;SDS011;54866;53.458;14.540;2023-05-10T12:37:00;3.50;;;2.20;;
68076;SDS011;54866;53.458;14.540;2023-05-10T12:39:41;6.00;;;2.60;;
68076;SDS011;54866;53.458;14.540;2023-05-10T12:42:12;4.70;;;2.30;;
68076;SDS011;54866;53.458;14.540;2023-05-10T12:44:42;3.90;;;2.30;;
68076;SDS011;54866;53.458;14.540;2023-05-10T12:47:11;4.00;;;2.20;;
68076;SDS011;54866;53.458;14.540;2023-05-10T12:49:41;2.70;;;2.30;;
68076;SDS011;54866;53.458;14.540;2023-05-10T12:52:10;6.20;;;2.40;;
68076;SDS011;54866;53.458;14.540;2023-05-10T12:54:40;4.20;;;2.70;;
68076;SDS011;54866;53.458;14.540;2023-05-10T12:57:09;4.70;;;2.20;;
68076;SDS011;54866;53.458;14.540;2023-05-10T12:59:40;5.80;;;2.60;;
68076;SDS011;54866;53.458;14.540;2023-05-10T13:02:10;5.00;;;2.40;;
68076;SDS011;54866;53.458;14.540;2023-05-10T13:04:39;3.20;;;2.40;;
68076;SDS011;54866;53.458;14.540;2023-05-10T13:07:09;4.20;;;2.50;;
68076;SDS011;54866;53.458;14.540;2023-05-10T13:09:39;4.20;;;2.50;;
68076;SDS011;54866;53.458;14.540;2023-05-10T13:12:09;3.90;;;2.40;;
68076;SDS011;54866;53.458;14.540;2023-05-10T13:14:38;4.60;;;2.50;;
68076;SDS011;54866;53.458;14.540;2023-05-10T13:17:08;4.10;;;2.60;;
68076;SDS011;54866;53.458;14.540;2023-05-10T13:19:37;3.60;;;2.60;;
68076;SDS011;54866;53.458;14.540;2023-05-10T13:22:07;3.50;;;2.20;;
68076;SDS011;54866;53.458;14.540;2023-05-10T13:24:36;3.30;;;1.90;;
68076;SDS011;54866;53.458;14.540;2023-05-10T13:27:06;5.10;;;2.40;;
68076;SDS011;54866;53.458;14.540;2023-05-10T13:29:35;4.90;;;2.70;;
68076;SDS011;54866;53.458;14.540;2023-05-10T13:32:05;3.60;;;2.50;;
68076;SDS011;54866;53.458;14.540;2023-05-10T13:34:35;5.20;;;2.40;;
68076;SDS011;54866;53.458;14.540;2023-05-10T13:37:04;5.50;;;2.90;;
68076;SDS011;54866;53.458;14.540;2023-05-10T13:39:34;6.00;;;2.90;;
68076;SDS011;54866;53.458;14.540;2023-05-10T13:42:04;3.60;;;2.30;;
68076;SDS011;54866;53.458;14.540;2023-05-10T13:44:34;4.70;;;2.40;;
68076;SDS011;54866;53.458;14.540;2023-05-10T13:47:05;4.20;;;2.10;;
68076;SDS011;54866;53.458;14.540;2023-05-10T13:49:34;7.00;;;2.40;;
68076;SDS011;54866;53.458;14.540;2023-05-10T13:52:04;4.30;;;2.60;;
68076;SDS011;54866;53.458;14.540;2023-05-10T13:54:34;3.50;;;2.30;;
68076;SDS011;54866;53.458;14.540;2023-05-10T13:57:04;4.90;;;2.20;;
68076;SDS011;54866;53.458;14.540;2023-05-10T13:59:34;5.90;;;2.20;;
68076;SDS011;54866;53.458;14.540;2023-05-10T14:02:04;5.60;;;2.80;;
68076;SDS011;54866;53.458;14.540;2023-05-10T14:04:33;4.30;;;2.60;;
68076;SDS011;54866;53.458;14.540;2023-05-10T14:07:03;5.60;;;2.60;;
68076;SDS011;54866;53.458;14.540;2023-05-10T14:09:32;3.40;;;2.50;;
68076;SDS011;54866;53.458;14.540;2023-05-10T14:12:02;2.70;;;1.90;;
68076;SDS011;54866;53.458;14.540;2023-05-10T14:14:32;4.90;;;2.30;;
68076;SDS011;54866;53.458;14.540;2023-05-10T14:17:01;7.30;;;2.80;;
68076;SDS011;54866;53.458;14.540;2023-05-10T14:19:31;3.20;;;2.20;;
68076;SDS011;54866;53.458;14.540;2023-05-10T14:22:01;7.20;;;2.60;;
68076;SDS011;54866;53.458;14.540;2023-05-10T14:24:31;6.40;;;2.40;;
68076;SDS011;54866;53.458;14.540;2023-05-10T14:27:01;4.70;;;2.70;;
68076;SDS011;54866;53.458;14.540;2023-05-10T14:29:30;4.50;;;2.60;;
68076;SDS011;54866;53.458;14.540;2023-05-10T14:32:00;4.70;;;2.40;;
68076;SDS011;54866;53.458;14.540;2023-05-10T14:34:30;4.70;;;3.00;;
68076;SDS011;54866;53.458;14.540;2023-05-10T14:36:59;3.00;;;2.20;;
68076;SDS011;54866;53.458;14.540;2023-05-10T14:39:29;5.50;;;2.80;;
68076;SDS011;54866;53.458;14.540;2023-05-10T14:41:59;4.90;;;2.40;;
68076;SDS011;54866;53.458;14.540;2023-05-10T14:44:30;7.60;;;2.80;;
68076;SDS011;54866;53.458;14.540;2023-05-10T14:46:59;6.20;;;2.80;;
68076;SDS011;54866;53.458;14.540;2023-05-10T14:49:29;4.70;;;2.50;;
68076;SDS011;54866;53.458;14.540;2023-05-10T14:51:59;4.30;;;2.50;;
68076;SDS011;54866;53.458;14.540;2023-05-10T14:54:28;4.60;;;2.50;;
68076;SDS011;54866;53.458;14.540;2023-05-10T14:56:59;4.60;;;2.20;;
68076;SDS011;54866;53.458;14.540;2023-05-10T14:59:29;2.80;;;2.30;;
68076;SDS011;54866;53.458;14.540;2023-05-10T15:01:59;4.30;;;2.40;;
68076;SDS011;54866;53.458;14.540;2023-05-10T15:04:29;4.50;;;2.60;;
68076;SDS011;54866;53.458;14.540;2023-05-10T15:06:59;3.90;;;2.60;;
68076;SDS011;54866;53.458;14.540;2023-05-10T15:09:28;4.00;;;2.60;;
68076;SDS011;54866;53.458;14.540;2023-05-10T15:11:58;4.60;;;2.60;;
68076;SDS011;54866;53.458;14.540;2023-05-10T15:14:28;3.60;;;2.20;;
68076;SDS011;54866;53.458;14.540;2023-05-10T15:16:57;4.70;;;2.20;;
68076;SDS011;54866;53.458;14.540;2023-05-10T15:19:27;3.40;;;2.50;;
68076;SDS011;54866;53.458;14.540;2023-05-10T15:21:57;3.60;;;2.60;;
68076;SDS011;54866;53.458;14.540;2023-05-10T15:24:26;4.50;;;2.60;;
68076;SDS011;54866;53.458;14.540;2023-05-10T15:26:56;5.70;;;2.30;;
68076;SDS011;54866;53.458;14.540;2023-05-10T15:29:26;3.30;;;2.40;;
68076;SDS011;54866;53.458;14.540;2023-05-10T15:31:57;4.70;;;2.20;;
68076;SDS011;54866;53.458;14.540;2023-05-10T15:34:28;5.10;;;2.40;;
68076;SDS011;54866;53.458;14.540;2023-05-10T15:36:58;5.60;;;2.50;;
68076;SDS011;54866;53.458;14.540;2023-05-10T15:39:27;2.90;;;2.40;;
68076;SDS011;54866;53.458;14.540;2023-05-10T15:41:57;4.70;;;2.50;;
68076;SDS011;54866;53.458;14.540;2023-05-10T15:44:28;2.90;;;2.20;;
68076;SDS011;54866;53.458;14.540;2023-05-10T15:46:57;4.80;;;2.50;;
68076;SDS011;54866;53.458;14.540;2023-05-10T15:49:27;4.10;;;2.50;;
68076;SDS011;54866;53.458;14.540;2023-05-10T15:51:56;3.30;;;2.30;;
68076;SDS011;54866;53.458;14.540;2023-05-10T15:54:26;3.80;;;2.20;;
68076;SDS011;54866;53.458;14.540;2023-05-10T15:56:55;5.00;;;2.70;;